Time;durP1;ratioP1;P1;durP2;ratioP2;P2;SDS_P1;SDS_P2;PMS_P1;PMS_P2;Temp;Humidity;BMP_temperature;BMP_pressure;BME280_temperature;BME280_humidity;BME280_pressure;Samples;Min_cycle;Max_cycle;Signal;HPM_P1;HPM_P2
2022/05/31 00:01:27;;;;;;;6.30;3.83;;;;;;;;;;5038753;28;20189;-64
2022/05/31 00:03:53;;;;;;;5.80;3.40;;;;;;;;;;5056716;28;20177;-63
2022/05/31 00:06:18;;;;;;;6.27;3.80;;;;;;;;;;5038537;28;20198;-66
2022/05/31 00:08:45;;;;;;;5.77;4.60;;;;;;;;;;5056715;28;20186;-64
2022/05/31 00:11:11;;;;;;;5.37;4.30;;;;;;;;;;5056639;28;20235;-64
2022/05/31 00:13:36;;;;;;;7.80;4.63;;;;;;;;;;5056397;28;20267;-65
2022/05/31 00:16:03;;;;;;;7.23;4.90;;;;;;;;;;5056309;28;20190;-65
2022/05/31 00:18:29;;;;;;;11.90;6.30;;;;;;;;;;5056353;28;20170;-65
2022/05/31 00:20:54;;;;;;;7.67;5.27;;;;;;;;;;5056547;28;20635;-64
2022/05/31 00:23:21;;;;;;;10.03;5.57;;;;;;;;;;5038683;28;20174;-64
2022/05/31 00:25:47;;;;;;;9.30;4.90;;;;;;;;;;5056265;28;20198;-63
2022/05/31 00:28:13;;;;;;;6.57;5.17;;;;;;;;;;5056529;28;20635;-64
2022/05/31 00:30:39;;;;;;;9.30;4.90;;;;;;;;;;5056036;28;20206;-64
2022/05/31 00:33:06;;;;;;;10.07;5.47;;;;;;;;;;5038281;28;20261;-63
2022/05/31 00:35:33;;;;;;;10.97;5.20;;;;;;;;;;5056168;28;20195;-62
2022/05/31 00:38:00;;;;;;;8.40;5.37;;;;;;;;;;5056312;28;20635;-62
2022/05/31 00:40:27;;;;;;;10.23;5.37;;;;;;;;;;5056570;28;20634;-63
2022/05/31 00:42:56;;;;;;;8.20;5.63;;;;;;;;;;5038047;28;20662;-64
2022/05/31 00:45:35;;;;;;;8.13;5.17;;;;;;;;;;5055858;28;20210;-63
2022/05/31 00:48:01;;;;;;;9.13;5.30;;;;;;;;;;5057133;28;20511;-64
2022/05/31 00:50:31;;;;;;;6.90;5.37;;;;;;;;;;5056732;28;20203;-64
2022/05/31 00:53:03;;;;;;;7.57;5.57;;;;;;;;;;5055910;28;20272;-64
2022/05/31 00:55:35;;;;;;;8.00;5.40;;;;;;;;;;5055733;28;20202;-64
2022/05/31 00:58:07;;;;;;;9.47;5.70;;;;;;;;;;5037921;28;20229;-64
2022/05/31 01:00:33;;;;;;;8.33;6.20;;;;;;;;;;5037813;28;20178;-64
2022/05/31 01:03:00;;;;;;;7.37;5.30;;;;;;;;;;5056099;28;20587;-64
2022/05/31 01:05:26;;;;;;;8.03;5.50;;;;;;;;;;5055410;28;20277;-64
2022/05/31 01:07:52;;;;;;;7.20;5.00;;;;;;;;;;5055423;28;20202;-63
2022/05/31 01:10:18;;;;;;;8.87;4.97;;;;;;;;;;5054638;28;20261;-64
2022/05/31 01:12:46;;;;;;;8.70;5.07;;;;;;;;;;5055538;28;20563;-63
2022/05/31 01:15:12;;;;;;;11.03;6.17;;;;;;;;;;5037454;28;20198;-63
2022/05/31 01:17:40;;;;;;;11.87;5.60;;;;;;;;;;5055259;28;20630;-64
2022/05/31 01:20:07;;;;;;;8.43;5.43;;;;;;;;;;5055564;28;20228;-64
2022/05/31 01:22:38;;;;;;;8.60;5.03;;;;;;;;;;5055145;28;20174;-64
2022/05/31 01:25:22;;;;;;;9.70;5.53;;;;;;;;;;5037370;28;20740;-64
2022/05/31 01:28:09;;;;;;;9.57;5.10;;;;;;;;;;5055540;28;20228;-64
2022/05/31 01:30:38;;;;;;;7.00;5.10;;;;;;;;;;5055345;28;20170;-64
2022/05/31 01:33:08;;;;;;;6.50;4.67;;;;;;;;;;5055159;28;20193;-64
2022/05/31 01:35:35;;;;;;;6.40;4.70;;;;;;;;;;5054946;28;20216;-64
2022/05/31 01:38:07;;;;;;;7.07;4.90;;;;;;;;;;5055307;28;20232;-64
2022/05/31 01:40:44;;;;;;;5.80;4.60;;;;;;;;;;5054943;28;20181;-65
2022/05/31 01:43:10;;;;;;;6.17;3.97;;;;;;;;;;5055320;28;20304;-64
2022/05/31 01:45:39;;;;;;;5.60;4.53;;;;;;;;;;5054682;28;20270;-63
2022/05/31 01:48:06;;;;;;;6.37;4.20;;;;;;;;;;5054700;28;20183;-63
2022/05/31 01:50:33;;;;;;;4.97;4.10;;;;;;;;;;5054495;28;20232;-65
2022/05/31 01:52:59;;;;;;;5.03;4.20;;;;;;;;;;5054996;28;20186;-63
2022/05/31 01:55:26;;;;;;;5.87;4.10;;;;;;;;;;5054524;28;20205;-64
2022/05/31 01:57:56;;;;;;;4.63;3.60;;;;;;;;;;5054713;28;20653;-63
2022/05/31 02:00:22;;;;;;;6.50;3.93;;;;;;;;;;5054606;28;20206;-64
2022/05/31 02:02:51;;;;;;;4.50;3.83;;;;;;;;;;5054330;28;20228;-63
2022/05/31 02:05:17;;;;;;;4.87;4.10;;;;;;;;;;5036446;28;20198;-64
2022/05/31 02:07:52;;;;;;;3.53;3.20;;;;;;;;;;5054463;28;20266;-64
2022/05/31 02:10:18;;;;;;;5.77;4.47;;;;;;;;;;5054729;28;20521;-64
2022/05/31 02:12:44;;;;;;;5.83;4.80;;;;;;;;;;5036384;28;20305;-64
2022/05/31 02:15:10;;;;;;;6.47;4.63;;;;;;;;;;5054232;28;20244;-62
2022/05/31 02:17:36;;;;;;;8.50;4.77;;;;;;;;;;5036380;28;20712;-64
2022/05/31 02:20:02;;;;;;;7.13;4.63;;;;;;;;;;5037194;28;20179;-64
2022/05/31 02:22:30;;;;;;;7.83;5.33;;;;;;;;;;5055570;28;20261;-63
2022/05/31 02:24:56;;;;;;;5.87;4.83;;;;;;;;;;5037883;28;20206;-64
2022/05/31 02:27:22;;;;;;;5.33;4.70;;;;;;;;;;5057357;28;20179;-64
2022/05/31 02:29:49;;;;;;;4.90;4.40;;;;;;;;;;5037547;28;20566;-64
2022/05/31 02:32:15;;;;;;;7.80;4.33;;;;;;;;;;5054365;28;20216;-64
2022/05/31 02:34:46;;;;;;;5.17;4.40;;;;;;;;;;5054097;28;20218;-64
2022/05/31 02:37:12;;;;;;;6.20;3.80;;;;;;;;;;5053974;28;20186;-65
2022/05/31 02:39:38;;;;;;;4.13;3.73;;;;;;;;;;5053938;28;20175;-63
2022/05/31 02:42:04;;;;;;;3.73;3.40;;;;;;;;;;5053652;28;20259;-64
2022/05/31 02:44:30;;;;;;;4.23;3.80;;;;;;;;;;5053735;28;20218;-64
2022/05/31 02:46:56;;;;;;;4.80;3.67;;;;;;;;;;5053833;28;20167;-64
2022/05/31 02:49:22;;;;;;;4.93;3.90;;;;;;;;;;5055524;22;20232;-65
2022/05/31 02:51:48;;;;;;;7.73;3.50;;;;;;;;;;5074106;28;20197;-65
2022/05/31 02:54:15;;;;;;;7.00;3.87;;;;;;;;;;5073722;28;20170;-65
2022/05/31 02:56:41;;;;;;;4.13;3.30;;;;;;;;;;5074075;28;20303;-65
2022/05/31 02:59:07;;;;;;;6.83;4.00;;;;;;;;;;5073782;28;20224;-67
2022/05/31 03:01:35;;;;;;;7.00;4.10;;;;;;;;;;5074058;28;20178;-65
2022/05/31 03:04:01;;;;;;;6.43;4.10;;;;;;;;;;5074394;28;20594;-65
2022/05/31 03:06:27;;;;;;;5.13;3.90;;;;;;;;;;5073507;28;20178;-65
2022/05/31 03:08:53;;;;;;;5.07;3.27;;;;;;;;;;5055357;28;20193;-65
2022/05/31 03:11:28;;;;;;;4.10;3.30;;;;;;;;;;5073262;28;20710;-66
2022/05/31 03:13:57;;;;;;;4.63;3.67;;;;;;;;;;5073381;28;20729;-65
2022/05/31 03:16:24;;;;;;;7.17;3.77;;;;;;;;;;5073328;28;20174;-66
2022/05/31 03:18:58;;;;;;;5.10;4.10;;;;;;;;;;5073094;28;20173;-68
2022/05/31 03:21:26;;;;;;;5.33;3.70;;;;;;;;;;5055248;28;20597;-68
2022/05/31 03:23:58;;;;;;;7.83;3.90;;;;;;;;;;5073500;28;20182;-67
2022/05/31 03:26:26;;;;;;;5.37;3.70;;;;;;;;;;5073359;28;20188;-67
2022/05/31 03:28:52;;;;;;;4.10;3.70;;;;;;;;;;5055283;28;20649;-67
2022/05/31 03:31:18;;;;;;;6.83;3.97;;;;;;;;;;5073346;28;20197;-67
2022/05/31 03:33:44;;;;;;;5.60;4.47;;;;;;;;;;5074177;28;20545;-68
2022/05/31 03:36:11;;;;;;;4.50;3.93;;;;;;;;;;5059393;28;20177;-68
2022/05/31 03:38:37;;;;;;;9.00;4.70;;;;;;;;;;5059323;28;20173;-67
2022/05/31 03:41:03;;;;;;;6.43;4.37;;;;;;;;;;5077467;28;20284;-68
2022/05/31 03:43:32;;;;;;;5.57;4.30;;;;;;;;;;5077238;28;20272;-68
2022/05/31 03:45:58;;;;;;;6.47;4.20;;;;;;;;;;5059028;28;20181;-67
2022/05/31 03:48:24;;;;;;;4.30;3.90;;;;;;;;;;5059188;28;20182;-68
2022/05/31 03:50:58;;;;;;;5.83;4.03;;;;;;;;;;5076602;28;20232;-66
2022/05/31 03:53:24;;;;;;;6.30;4.50;;;;;;;;;;5077060;28;20170;-65
2022/05/31 03:55:50;;;;;;;10.60;4.83;;;;;;;;;;5077158;28;20177;-67
2022/05/31 03:58:15;;;;;;;6.00;4.40;;;;;;;;;;5076908;28;20231;-66
2022/05/31 04:00:41;;;;;;;5.87;4.57;;;;;;;;;;5058918;28;20194;-66
2022/05/31 04:03:07;;;;;;;6.57;4.97;;;;;;;;;;5076701;28;20288;-67
2022/05/31 04:05:34;;;;;;;5.67;4.27;;;;;;;;;;5058706;28;20264;-67
2022/05/31 04:08:06;;;;;;;8.47;4.80;;;;;;;;;;5058586;28;20174;-66
2022/05/31 04:10:32;;;;;;;6.23;4.57;;;;;;;;;;5076372;28;20224;-67
2022/05/31 04:12:59;;;;;;;5.50;4.53;;;;;;;;;;5058706;28;20264;-66
2022/05/31 04:15:25;;;;;;;7.07;4.30;;;;;;;;;;5058513;28;20223;-67
2022/05/31 04:17:51;;;;;;;5.30;4.80;;;;;;;;;;5058577;28;20177;-67
2022/05/31 04:20:18;;;;;;;5.83;4.47;;;;;;;;;;5058349;28;20201;-66
2022/05/31 04:22:44;;;;;;;6.27;4.80;;;;;;;;;;5076710;28;20180;-66
2022/05/31 04:25:10;;;;;;;6.77;4.60;;;;;;;;;;5077635;28;20209;-66
2022/05/31 04:27:36;;;;;;;6.87;4.63;;;;;;;;;;5058751;28;20182;-66
2022/05/31 04:30:02;;;;;;;7.27;4.47;;;;;;;;;;5076166;28;20198;-65
2022/05/31 04:32:28;;;;;;;8.43;5.00;;;;;;;;;;5076198;28;20240;-66
2022/05/31 04:34:54;;;;;;;6.67;4.80;;;;;;;;;;5076525;28;20178;-67
2022/05/31 04:37:20;;;;;;;6.23;4.73;;;;;;;;;;5076114;28;20178;-66
2022/05/31 04:39:46;;;;;;;8.27;5.13;;;;;;;;;;5058611;28;20198;-65
2022/05/31 04:42:12;;;;;;;8.70;5.10;;;;;;;;;;5076523;28;20698;-66
2022/05/31 04:44:38;;;;;;;7.27;4.70;;;;;;;;;;5075539;28;20197;-66
2022/05/31 04:47:06;;;;;;;10.03;5.53;;;;;;;;;;5075372;28;20542;-67
2022/05/31 04:49:32;;;;;;;8.07;5.23;;;;;;;;;;5075727;28;20217;-66
2022/05/31 04:51:58;;;;;;;6.00;5.40;;;;;;;;;;5057802;28;20206;-67
2022/05/31 04:54:24;;;;;;;11.33;5.97;;;;;;;;;;5057931;28;20682;-67
2022/05/31 04:56:52;;;;;;;7.20;5.53;;;;;;;;;;5075927;28;20170;-67
2022/05/31 04:59:19;;;;;;;8.40;5.80;;;;;;;;;;5076053;28;20201;-66
2022/05/31 05:01:45;;;;;;;13.97;7.03;;;;;;;;;;5057907;28;20577;-67
2022/05/31 05:04:11;;;;;;;6.33;4.93;;;;;;;;;;5057813;28;20178;-67
2022/05/31 05:06:37;;;;;;;8.90;5.57;;;;;;;;;;5075298;28;20253;-66
2022/05/31 05:09:03;;;;;;;8.07;5.37;;;;;;;;;;5075739;28;20252;-66
2022/05/31 05:11:32;;;;;;;9.60;5.60;;;;;;;;;;5057316;28;20209;-66
2022/05/31 05:13:58;;;;;;;10.00;6.10;;;;;;;;;;5057315;28;20606;-67
2022/05/31 05:16:24;;;;;;;8.73;5.93;;;;;;;;;;5075386;28;20180;-66
2022/05/31 05:18:50;;;;;;;12.10;6.27;;;;;;;;;;5057191;28;20592;-66
2022/05/31 05:21:16;;;;;;;8.13;5.83;;;;;;;;;;5057240;28;20276;-66
2022/05/31 05:23:43;;;;;;;10.60;6.30;;;;;;;;;;5075233;28;20182;-66
2022/05/31 05:26:09;;;;;;;9.73;5.53;;;;;;;;;;5057078;28;20608;-66
2022/05/31 05:31:22;;;;;;;10.87;6.40;;;;;;;;;;5075814;28;20258;-67
2022/05/31 05:33:48;;;;;;;9.57;5.73;;;;;;;;;;5057467;28;20226;-66
2022/05/31 05:36:14;;;;;;;9.77;6.20;;;;;;;;;;5057244;28;20520;-66
2022/05/31 05:38:40;;;;;;;10.57;6.53;;;;;;;;;;5074871;28;20199;-66
2022/05/31 05:41:06;;;;;;;10.10;6.63;;;;;;;;;;5075228;28;20268;-66
2022/05/31 05:43:32;;;;;;;8.13;5.90;;;;;;;;;;5074805;28;20200;-66
2022/05/31 05:45:58;;;;;;;7.90;5.80;;;;;;;;;;5056864;28;20214;-67
2022/05/31 05:48:24;;;;;;;8.50;6.20;;;;;;;;;;5056924;28;20607;-67
2022/05/31 05:50:50;;;;;;;7.73;5.63;;;;;;;;;;5074270;28;20220;-66
2022/05/31 05:53:16;;;;;;;9.23;5.97;;;;;;;;;;5074770;28;20264;-66
2022/05/31 05:55:42;;;;;;;11.97;5.77;;;;;;;;;;5074751;28;20189;-67
2022/05/31 05:58:08;;;;;;;9.43;6.33;;;;;;;;;;5074555;28;20730;-67
2022/05/31 06:00:45;;;;;;;7.27;5.80;;;;;;;;;;5074464;28;20198;-67
2022/05/31 06:03:23;;;;;;;11.27;6.80;;;;;;;;;;5056456;28;20173;-66
2022/05/31 06:05:49;;;;;;;9.83;6.23;;;;;;;;;;5056597;28;20211;-67
2022/05/31 06:08:21;;;;;;;7.83;6.00;;;;;;;;;;5056387;28;20269;-67
2022/05/31 06:10:56;;;;;;;7.67;5.90;;;;;;;;;;5074240;28;20193;-66
2022/05/31 06:13:25;;;;;;;8.97;6.37;;;;;;;;;;5056607;28;20173;-68
2022/05/31 06:15:53;;;;;;;8.30;5.77;;;;;;;;;;5074517;28;20174;-67
2022/05/31 06:18:22;;;;;;;11.63;5.87;;;;;;;;;;5074626;28;20178;-67
2022/05/31 06:20:53;;;;;;;8.27;5.73;;;;;;;;;;5056177;28;20204;-66
2022/05/31 06:23:19;;;;;;;10.33;5.47;;;;;;;;;;5074844;28;20181;-67
2022/05/31 06:25:45;;;;;;;11.27;6.17;;;;;;;;;;5074274;28;20178;-67
2022/05/31 06:28:11;;;;;;;14.10;6.40;;;;;;;;;;5074517;28;20174;-67
2022/05/31 06:30:37;;;;;;;10.03;6.57;;;;;;;;;;5074238;28;20239;-67
2022/05/31 06:33:04;;;;;;;11.70;7.10;;;;;;;;;;5056855;28;20236;-67
2022/05/31 06:35:30;;;;;;;12.63;6.23;;;;;;;;;;5073998;28;20231;-67
2022/05/31 06:37:56;;;;;;;9.30;6.00;;;;;;;;;;5073907;28;20170;-66
2022/05/31 06:40:22;;;;;;;12.60;6.93;;;;;;;;;;5074233;28;20248;-68
2022/05/31 06:42:48;;;;;;;11.53;6.30;;;;;;;;;;5055765;28;20177;-66
2022/05/31 06:45:14;;;;;;;7.57;6.87;;;;;;;;;;5055944;28;20243;-66
2022/05/31 06:47:40;;;;;;;10.13;6.57;;;;;;;;;;5074094;28;20182;-66
2022/05/31 06:50:06;;;;;;;8.93;7.23;;;;;;;;;;5073758;28;20209;-67
2022/05/31 06:58:01;;;;;;;7.90;6.53;;;;;;;;;;5074001;28;20253;-67
2022/05/31 07:00:27;;;;;;;11.07;6.97;;;;;;;;;;5055884;28;20628;-67
2022/05/31 07:02:55;;;;;;;9.83;7.27;;;;;;;;;;5073985;28;20178;-66
2022/05/31 07:05:22;;;;;;;12.17;6.67;;;;;;;;;;5073569;28;20169;-66
2022/05/31 07:07:48;;;;;;;13.43;6.13;;;;;;;;;;5073417;28;20186;-66
2022/05/31 07:10:14;;;;;;;11.60;6.23;;;;;;;;;;5073278;28;20225;-67
2022/05/31 07:12:41;;;;;;;10.80;7.10;;;;;;;;;;5074032;28;20278;-66
2022/05/31 07:15:08;;;;;;;8.90;6.20;;;;;;;;;;5056043;28;20177;-68
2022/05/31 07:17:35;;;;;;;7.63;6.40;;;;;;;;;;5073710;28;20260;-67
2022/05/31 07:20:01;;;;;;;10.47;7.17;;;;;;;;;;5073486;28;20225;-66
2022/05/31 07:22:27;;;;;;;11.00;6.73;;;;;;;;;;5055340;28;20205;-69
2022/05/31 07:24:53;;;;;;;10.00;6.80;;;;;;;;;;5073217;28;20231;-66
2022/05/31 07:27:19;;;;;;;13.50;7.67;;;;;;;;;;5073433;28;20189;-67
2022/05/31 07:29:45;;;;;;;7.93;6.33;;;;;;;;;;5073008;28;20205;-66
2022/05/31 07:32:11;;;;;;;8.77;5.97;;;;;;;;;;5073201;28;20194;-67
2022/05/31 07:34:37;;;;;;;9.80;6.63;;;;;;;;;;5073104;28;20227;-67
2022/05/31 07:37:03;;;;;;;10.00;6.70;;;;;;;;;;5073095;28;20169;-67
2022/05/31 07:39:29;;;;;;;14.10;6.80;;;;;;;;;;5073174;28;20201;-66
2022/05/31 07:41:56;;;;;;;10.30;6.93;;;;;;;;;;5073492;28;20185;-66
2022/05/31 07:44:23;;;;;;;9.13;6.50;;;;;;;;;;5073212;28;20205;-66
2022/05/31 07:46:49;;;;;;;10.20;7.30;;;;;;;;;;5074302;28;20521;-66
2022/05/31 07:49:15;;;;;;;11.90;7.63;;;;;;;;;;5073036;28;20213;-66
2022/05/31 07:51:42;;;;;;;12.87;7.37;;;;;;;;;;5073291;28;20193;-66
2022/05/31 07:54:08;;;;;;;8.43;7.53;;;;;;;;;;5073017;28;20249;-67
2022/05/31 07:56:34;;;;;;;12.77;8.07;;;;;;;;;;5054964;28;20177;-66
2022/05/31 07:58:59;;;;;;;14.67;7.53;;;;;;;;;;5073167;28;20692;-67
2022/05/31 08:01:25;;;;;;;11.73;7.47;;;;;;;;;;5072701;28;20174;-66
2022/05/31 08:03:52;;;;;;;9.07;7.27;;;;;;;;;;5073229;28;20179;-66
2022/05/31 08:06:20;;;;;;;13.23;7.47;;;;;;;;;;5054867;28;20587;-66
2022/05/31 08:08:46;;;;;;;9.20;6.40;;;;;;;;;;5072910;28;20186;-66
2022/05/31 08:11:12;;;;;;;8.03;5.67;;;;;;;;;;5072761;28;20198;-66
2022/05/31 08:13:38;;;;;;;11.23;5.77;;;;;;;;;;5072789;28;20228;-66
2022/05/31 08:16:05;;;;;;;6.63;5.20;;;;;;;;;;5055645;28;20178;-67
2022/05/31 08:18:31;;;;;;;9.93;5.73;;;;;;;;;;5073406;28;20202;-66
2022/05/31 08:20:58;;;;;;;7.27;4.93;;;;;;;;;;5075055;28;20201;-66
2022/05/31 08:23:24;;;;;;;10.90;6.30;;;;;;;;;;5076502;28;20174;-66
2022/05/31 08:25:50;;;;;;;10.73;6.63;;;;;;;;;;5076213;28;20201;-66
2022/05/31 08:28:17;;;;;;;8.27;5.53;;;;;;;;;;5058550;28;20258;-66
2022/05/31 08:30:42;;;;;;;9.47;6.47;;;;;;;;;;5075956;28;20193;-69
2022/05/31 08:33:08;;;;;;;11.50;7.17;;;;;;;;;;5058196;28;20303;-66
2022/05/31 08:35:34;;;;;;;10.67;7.00;;;;;;;;;;5076199;28;20178;-66
2022/05/31 08:38:00;;;;;;;9.07;6.20;;;;;;;;;;5058166;28;20189;-67
2022/05/31 08:40:26;;;;;;;7.97;6.20;;;;;;;;;;5058084;28;20202;-66
2022/05/31 08:42:57;;;;;;;9.60;6.93;;;;;;;;;;5058098;28;20185;-67
2022/05/31 08:45:32;;;;;;;8.30;5.93;;;;;;;;;;5076061;28;20618;-67
2022/05/31 08:48:09;;;;;;;7.43;5.97;;;;;;;;;;5076272;28;20264;-67
2022/05/31 08:53:26;;;;;;;7.93;5.50;;;;;;;;;;5076064;28;20697;-66
2022/05/31 08:58:45;;;;;;;5.53;4.50;;;;;;;;;;5076387;28;20176;-66
2022/05/31 09:01:14;;;;;;;7.07;4.40;;;;;;;;;;5075635;28;20208;-66
2022/05/31 09:03:48;;;;;;;5.23;4.73;;;;;;;;;;5057625;28;20672;-67
2022/05/31 09:06:17;;;;;;;7.43;4.73;;;;;;;;;;5057657;28;20188;-67
2022/05/31 09:08:58;;;;;;;8.70;4.70;;;;;;;;;;5075451;28;20186;-66
2022/05/31 09:11:28;;;;;;;4.40;3.73;;;;;;;;;;5075835;28;20225;-66
2022/05/31 09:14:01;;;;;;;5.00;4.30;;;;;;;;;;5075408;28;20262;-66
2022/05/31 09:16:39;;;;;;;4.70;3.73;;;;;;;;;;5075683;28;20170;-66
2022/05/31 09:19:08;;;;;;;7.03;3.97;;;;;;;;;;5075193;28;20190;-66
2022/05/31 09:21:34;;;;;;;6.07;3.50;;;;;;;;;;5075169;28;20185;-67
2022/05/31 09:24:02;;;;;;;4.10;3.70;;;;;;;;;;5117139;22;20221;-66
2022/05/31 09:26:31;;;;;;;6.27;3.80;;;;;;;;;;5076166;28;20166;-64
2022/05/31 09:29:01;;;;;;;5.17;3.50;;;;;;;;;;5075605;28;20587;-65
2022/05/31 09:31:47;;;;;;;5.03;3.90;;;;;;;;;;5056427;28;20717;-65
2022/05/31 09:34:17;;;;;;;4.80;3.50;;;;;;;;;;5057235;28;20209;-65
2022/05/31 09:36:51;;;;;;;4.20;3.50;;;;;;;;;;5075418;28;20170;-65
2022/05/31 09:39:23;;;;;;;6.00;4.07;;;;;;;;;;5057316;28;20169;-65
2022/05/31 09:41:49;;;;;;;5.27;3.57;;;;;;;;;;5075637;28;20201;-65
2022/05/31 09:44:15;;;;;;;5.30;2.93;;;;;;;;;;5075111;28;20198;-65
2022/05/31 09:46:45;;;;;;;5.13;3.30;;;;;;;;;;5057234;28;20188;-65
2022/05/31 09:49:46;;;;;;;4.83;3.50;;;;;;;;;;5075010;28;20178;-65
2022/05/31 09:52:31;;;;;;;5.37;3.70;;;;;;;;;;4994282;28;20246;-65
2022/05/31 09:58:07;;;;;;;5.23;3.57;;;;;;;;;;5075290;28;20219;-64
2022/05/31 10:00:33;;;;;;;4.07;3.63;;;;;;;;;;5056977;28;20569;-66
2022/05/31 10:03:03;;;;;;;4.70;3.70;;;;;;;;;;5075091;28;20177;-64
2022/05/31 10:05:29;;;;;;;4.87;3.70;;;;;;;;;;5056738;28;20691;-66
2022/05/31 10:07:55;;;;;;;3.33;3.03;;;;;;;;;;5056773;28;20182;-64
2022/05/31 10:10:29;;;;;;;4.60;2.83;;;;;;;;;;5074615;28;20174;-65
2022/05/31 10:12:56;;;;;;;4.47;2.87;;;;;;;;;;5056485;28;20673;-65
2022/05/31 10:15:31;;;;;;;3.57;3.27;;;;;;;;;;5074466;28;20197;-65
2022/05/31 10:18:01;;;;;;;4.40;3.17;;;;;;;;;;5056825;28;20188;-66
2022/05/31 10:20:27;;;;;;;6.03;2.97;;;;;;;;;;5074412;28;20182;-65
2022/05/31 10:22:56;;;;;;;7.20;4.00;;;;;;;;;;5074832;28;20178;-64
2022/05/31 10:25:24;;;;;;;5.73;3.97;;;;;;;;;;5055700;28;20217;-65
2022/05/31 10:27:56;;;;;;;6.47;3.90;;;;;;;;;;5073801;28;20178;-65
2022/05/31 10:30:23;;;;;;;3.97;3.20;;;;;;;;;;5073985;28;20176;-65
2022/05/31 10:33:08;;;;;;;4.53;3.30;;;;;;;;;;5073529;28;20204;-64
2022/05/31 10:35:43;;;;;;;5.77;3.90;;;;;;;;;;5073548;28;20219;-65
2022/05/31 10:38:18;;;;;;;3.70;3.30;;;;;;;;;;5073311;28;20167;-65
2022/05/31 10:40:55;;;;;;;3.50;2.50;;;;;;;;;;5073348;28;20174;-64
2022/05/31 10:43:40;;;;;;;2.80;2.43;;;;;;;;;;5073185;28;20591;-65
2022/05/31 10:46:13;;;;;;;2.87;2.30;;;;;;;;;;5073145;28;20180;-65
2022/05/31 10:48:48;;;;;;;4.43;2.70;;;;;;;;;;5073144;28;20170;-65
2022/05/31 10:51:38;;;;;;;2.90;2.60;;;;;;;;;;5055268;28;20211;-64
2022/05/31 10:54:30;;;;;;;4.77;2.87;;;;;;;;;;5018879;28;20700;-65
2022/05/31 10:56:59;;;;;;;3.27;2.80;;;;;;;;;;5068383;28;20220;-65
2022/05/31 10:59:29;;;;;;;4.37;2.73;;;;;;;;;;5054842;28;20178;-64
2022/05/31 11:02:07;;;;;;;4.87;2.60;;;;;;;;;;5073106;28;20177;-66
2022/05/31 11:04:49;;;;;;;5.67;2.93;;;;;;;;;;5072774;28;20284;-65
2022/05/31 11:07:18;;;;;;;2.87;2.47;;;;;;;;;;5073196;28;20638;-65
2022/05/31 11:12:34;;;;;;;3.20;2.90;;;;;;;;;;5073196;28;20282;-65
2022/05/31 11:15:06;;;;;;;3.40;2.53;;;;;;;;;;5054563;28;20197;-66
2022/05/31 11:17:37;;;;;;;3.50;2.87;;;;;;;;;;5072848;28;20174;-65
2022/05/31 11:20:09;;;;;;;4.50;3.00;;;;;;;;;;5072653;28;20177;-65
2022/05/31 11:22:37;;;;;;;4.27;3.13;;;;;;;;;;5073111;28;20157;-65
2022/05/31 11:25:04;;;;;;;2.93;2.70;;;;;;;;;;5036888;28;1037877;-65
2022/05/31 11:27:47;;;;;;;4.33;3.50;;;;;;;;;;5055311;28;20181;-65
2022/05/31 11:30:13;;;;;;;3.03;2.77;;;;;;;;;;5073588;28;20532;-65
2022/05/31 11:32:51;;;;;;;4.80;3.00;;;;;;;;;;5055267;28;20216;-66
2022/05/31 11:35:22;;;;;;;3.63;2.90;;;;;;;;;;5073074;28;20202;-65
2022/05/31 11:38:03;;;;;;;5.13;3.00;;;;;;;;;;5055321;28;20166;-65
2022/05/31 11:40:51;;;;;;;3.23;2.80;;;;;;;;;;5055314;28;20233;-65
2022/05/31 11:43:17;;;;;;;5.13;3.00;;;;;;;;;;5055327;28;20194;-64
2022/05/31 11:45:55;;;;;;;4.23;3.10;;;;;;;;;;5073383;28;20186;-69
2022/05/31 11:48:22;;;;;;;2.73;2.50;;;;;;;;;;5073457;28;20183;-65
2022/05/31 11:50:54;;;;;;;2.90;2.70;;;;;;;;;;5055533;28;20273;-65
2022/05/31 11:53:43;;;;;;;2.60;2.37;;;;;;;;;;5055086;28;20190;-65
2022/05/31 11:56:12;;;;;;;2.77;2.53;;;;;;;;;;5076459;28;20245;-66
2022/05/31 11:58:47;;;;;;;5.70;2.90;;;;;;;;;;5059106;28;20181;-65
2022/05/31 12:01:17;;;;;;;2.80;2.50;;;;;;;;;;5077406;28;20181;-65
2022/05/31 12:03:43;;;;;;;2.93;2.60;;;;;;;;;;5077090;28;20612;-65
2022/05/31 12:06:15;;;;;;;2.90;2.50;;;;;;;;;;5077204;28;20213;-65
2022/05/31 12:08:44;;;;;;;3.33;2.67;;;;;;;;;;5058815;28;20181;-65
2022/05/31 12:11:14;;;;;;;3.80;2.60;;;;;;;;;;5076730;28;20669;-65
2022/05/31 12:13:42;;;;;;;3.77;2.50;;;;;;;;;;5058746;28;20193;-65
2022/05/31 12:16:08;;;;;;;3.57;2.60;;;;;;;;;;5076702;28;20188;-65
2022/05/31 12:18:46;;;;;;;5.40;2.67;;;;;;;;;;5058764;28;20717;-66
2022/05/31 12:21:20;;;;;;;2.47;2.27;;;;;;;;;;5058702;28;20199;-65
2022/05/31 12:23:54;;;;;;;2.53;2.33;;;;;;;;;;5076710;28;20217;-64
2022/05/31 12:26:33;;;;;;;3.43;2.40;;;;;;;;;;5058567;28;20184;-65
2022/05/31 12:29:11;;;;;;;3.13;2.47;;;;;;;;;;5076772;28;20183;-65
2022/05/31 12:31:39;;;;;;;4.57;2.33;;;;;;;;;;5076787;28;20197;-64
2022/05/31 12:34:12;;;;;;;4.33;2.20;;;;;;;;;;5076640;28;20280;-64
2022/05/31 12:36:56;;;;;;;3.70;2.70;;;;;;;;;;5076642;28;20231;-64
2022/05/31 12:39:27;;;;;;;3.17;2.33;;;;;;;;;;5076388;28;20173;-66
2022/05/31 12:41:54;;;;;;;3.17;2.43;;;;;;;;;;5077043;28;20162;-67
2022/05/31 12:44:28;;;;;;;4.37;2.47;;;;;;;;;;5076534;28;20292;-66
2022/05/31 12:46:55;;;;;;;2.80;2.20;;;;;;;;;;5077125;28;20565;-66
2022/05/31 12:49:24;;;;;;;2.50;2.20;;;;;;;;;;5058373;28;20189;-65
2022/05/31 12:54:53;;;;;;;5.03;2.20;;;;;;;;;;5076604;28;20202;-64
2022/05/31 13:00:42;;;;;;;3.50;2.00;;;;;;;;;;5047291;28;20187;-64
2022/05/31 13:03:37;;;;;;;3.07;1.90;;;;;;;;;;5076180;28;20166;-65
2022/05/31 13:06:07;;;;;;;3.13;1.80;;;;;;;;;;5044648;28;20193;-65
2022/05/31 13:08:45;;;;;;;5.87;2.27;;;;;;;;;;5075680;28;20181;-65
2022/05/31 13:19:38;;;;;;;2.33;1.90;;;;;;;;;;5075936;28;20247;-66
2022/05/31 13:22:09;;;;;;;2.73;1.70;;;;;;;;;;5057865;28;20182;-66
2022/05/31 13:24:38;;;;;;;2.20;2.00;;;;;;;;;;5075501;28;20686;-66
2022/05/31 13:27:08;;;;;;;4.07;1.70;;;;;;;;;;5057686;28;20182;-66
2022/05/31 13:29:34;;;;;;;1.63;1.53;;;;;;;;;;5057415;28;20181;-65
2022/05/31 13:32:01;;;;;;;1.90;1.77;;;;;;;;;;5075364;28;20201;-66
2022/05/31 13:34:37;;;;;;;1.67;1.50;;;;;;;;;;5057542;28;20197;-64
2022/05/31 13:37:12;;;;;;;2.03;1.70;;;;;;;;;;5057432;28;20178;-63
2022/05/31 13:39:43;;;;;;;2.23;1.80;;;;;;;;;;5057419;28;20177;-63
2022/05/31 13:42:16;;;;;;;1.57;1.47;;;;;;;;;;5075140;28;20181;-63
2022/05/31 13:44:42;;;;;;;1.70;1.60;;;;;;;;;;5057153;28;20205;-66
2022/05/31 13:47:09;;;;;;;1.70;1.60;;;;;;;;;;5057227;28;20192;-65
2022/05/31 13:49:35;;;;;;;2.40;1.80;;;;;;;;;;5075581;28;20178;-67
2022/05/31 13:52:02;;;;;;;2.07;1.97;;;;;;;;;;5057139;28;20641;-67
2022/05/31 13:54:30;;;;;;;3.60;1.93;;;;;;;;;;5075470;28;20242;-65
2022/05/31 13:57:00;;;;;;;2.10;1.90;;;;;;;;;;5075095;28;20655;-64
2022/05/31 13:59:34;;;;;;;2.10;1.87;;;;;;;;;;5074861;28;20162;-66
2022/05/31 14:02:01;;;;;;;4.37;2.00;;;;;;;;;;5074819;28;20197;-63
2022/05/31 14:04:35;;;;;;;1.90;1.80;;;;;;;;;;5057129;28;20209;-66
2022/05/31 14:07:02;;;;;;;1.90;1.80;;;;;;;;;;5074768;28;20738;-64
2022/05/31 14:09:29;;;;;;;1.90;1.80;;;;;;;;;;5074488;28;20186;-65
2022/05/31 14:12:03;;;;;;;1.80;1.70;;;;;;;;;;5074684;28;20212;-64
2022/05/31 14:14:35;;;;;;;1.57;1.47;;;;;;;;;;5074773;28;20611;-65
2022/05/31 14:17:02;;;;;;;2.00;1.67;;;;;;;;;;5074726;28;20248;-65
2022/05/31 14:19:30;;;;;;;2.73;1.63;;;;;;;;;;5074102;28;20249;-65
2022/05/31 14:22:00;;;;;;;1.80;1.70;;;;;;;;;;5074798;28;20634;-65
2022/05/31 14:24:28;;;;;;;1.90;1.80;;;;;;;;;;5056259;28;20235;-65
2022/05/31 14:26:54;;;;;;;2.73;1.90;;;;;;;;;;5074445;28;20181;-64
2022/05/31 14:29:24;;;;;;;2.83;1.60;;;;;;;;;;5074336;28;20185;-67
2022/05/31 14:31:52;;;;;;;1.90;1.70;;;;;;;;;;5074167;28;20201;-65
2022/05/31 14:34:17;;;;;;;1.73;1.63;;;;;;;;;;5074765;28;20284;-67
2022/05/31 14:36:46;;;;;;;1.50;1.40;;;;;;;;;;5074208;28;20208;-65
2022/05/31 14:39:16;;;;;;;3.30;1.80;;;;;;;;;;5074023;28;20234;-64
2022/05/31 14:41:43;;;;;;;1.83;1.60;;;;;;;;;;5075188;28;20178;-65
2022/05/31 14:44:28;;;;;;;1.70;1.60;;;;;;;;;;5073970;28;20205;-66
2022/05/31 14:47:05;;;;;;;2.73;1.83;;;;;;;;;;5074334;28;20536;-65
2022/05/31 14:49:31;;;;;;;3.67;1.87;;;;;;;;;;5055932;28;20165;-64
2022/05/31 14:51:57;;;;;;;2.00;1.57;;;;;;;;;;5074776;28;20371;-65
2022/05/31 14:54:37;;;;;;;1.60;1.50;;;;;;;;;;5056059;28;20202;-66
2022/05/31 14:57:07;;;;;;;1.93;1.67;;;;;;;;;;5074290;28;20219;-65
2022/05/31 14:59:33;;;;;;;2.70;1.40;;;;;;;;;;5073639;28;20248;-65
2022/05/31 15:01:59;;;;;;;2.13;1.53;;;;;;;;;;5073910;28;20178;-66
2022/05/31 15:04:45;;;;;;;1.70;1.47;;;;;;;;;;5073862;28;20280;-65
2022/05/31 15:07:14;;;;;;;3.17;1.80;;;;;;;;;;5073677;28;20200;-65
2022/05/31 15:09:42;;;;;;;3.23;1.90;;;;;;;;;;5055647;28;20209;-65
2022/05/31 15:20:27;;;;;;;3.10;2.30;;;;;;;;;;5073782;28;20173;-65
2022/05/31 15:22:55;;;;;;;3.03;2.20;;;;;;;;;;5073381;28;20181;-66
2022/05/31 15:25:23;;;;;;;2.93;2.40;;;;;;;;;;5073294;28;20223;-65
2022/05/31 15:27:49;;;;;;;3.83;3.00;;;;;;;;;;5073345;28;20182;-64
2022/05/31 15:30:15;;;;;;;3.87;2.80;;;;;;;;;;5072621;28;20577;-65
2022/05/31 15:32:44;;;;;;;3.43;2.60;;;;;;;;;;5073509;28;20201;-66
2022/05/31 15:35:10;;;;;;;2.77;2.50;;;;;;;;;;5055612;28;20624;-65